Time;durP1;ratioP1;P1;durP2;ratioP2;P2;SDS_P1;SDS_P2;PMS_P1;PMS_P2;Temp;Humidity;BMP_temperature;BMP_pressure;BME280_temperature;BME280_humidity;BME280_pressure;Samples;Min_cycle;Max_cycle;Signal;HPM_P1;HPM_P2
2022/04/25 00:01:27;;;;;;;13.40;8.40;;;6.80;99.90;;;;;;5235924;28;20182;-50
2022/04/25 00:03:58;;;;;;;16.60;8.57;;;6.90;99.90;;;;;;5244867;28;20200;-48
2022/04/25 00:06:29;;;;;;;16.33;8.77;;;6.80;99.90;;;;;;5242483;28;20422;-52
2022/04/25 00:08:59;;;;;;;14.37;8.30;;;6.70;99.90;;;;;;5264501;28;20197;-49
2022/04/25 00:11:30;;;;;;;15.07;8.63;;;6.70;99.90;;;;;;5245068;28;20181;-53
2022/04/25 00:14:00;;;;;;;18.03;8.90;;;6.70;99.90;;;;;;5255882;28;20236;-52
2022/04/25 00:16:31;;;;;;;15.97;8.67;;;6.70;99.90;;;;;;5244487;28;20187;-52
2022/04/25 00:19:01;;;;;;;14.17;9.10;;;6.70;99.90;;;;;;5243670;28;20211;-48
2022/04/25 00:21:33;;;;;;;14.67;8.50;;;6.70;99.90;;;;;;5246791;28;20230;-52
2022/04/25 00:24:04;;;;;;;13.50;9.77;;;6.70;99.90;;;;;;5261626;28;20227;-52
2022/04/25 00:26:34;;;;;;;16.10;8.67;;;6.70;99.90;;;;;;5258790;28;20473;-52
2022/04/25 00:29:05;;;;;;;15.53;9.10;;;6.70;99.90;;;;;;5237834;28;20188;-52
2022/04/25 00:31:35;;;;;;;17.50;9.80;;;6.70;99.90;;;;;;5254572;28;20218;-53
2022/04/25 00:34:06;;;;;;;13.77;9.23;;;6.70;99.90;;;;;;5260376;28;20188;-54
2022/04/25 00:36:37;;;;;;;15.87;9.50;;;6.70;99.90;;;;;;5242564;28;20185;-46
2022/04/25 00:39:07;;;;;;;22.10;9.53;;;6.70;99.90;;;;;;5264698;28;20752;-47
2022/04/25 00:41:39;;;;;;;16.03;8.90;;;6.60;99.90;;;;;;5268679;28;20300;-47
2022/04/25 00:44:09;;;;;;;21.77;10.50;;;6.70;99.90;;;;;;5255568;28;20242;-47
2022/04/25 00:46:41;;;;;;;27.40;10.97;;;6.70;99.90;;;;;;5248616;28;20885;-54
2022/04/25 00:49:12;;;;;;;25.87;10.80;;;6.70;99.90;;;;;;5242817;28;20678;-47
2022/04/25 00:51:43;;;;;;;18.17;11.20;;;6.70;99.90;;;;;;5257669;28;20437;-47
2022/04/25 00:54:14;;;;;;;22.80;12.50;;;6.60;99.90;;;;;;5246038;28;20422;-46
2022/04/25 00:56:46;;;;;;;25.80;12.33;;;6.60;99.90;;;;;;5239151;28;20257;-48
2022/04/25 00:59:21;;;;;;;21.90;12.20;;;6.50;99.90;;;;;;5269032;28;20540;-46
2022/04/25 01:01:52;;;;;;;32.50;14.40;;;6.50;99.90;;;;;;5250649;28;20983;-49
2022/04/25 01:04:23;;;;;;;18.27;11.50;;;6.50;99.90;;;;;;5257027;28;20485;-52
2022/04/25 01:06:53;;;;;;;29.03;12.50;;;6.50;99.90;;;;;;5232187;28;20422;-49
2022/04/25 01:09:25;;;;;;;14.33;11.03;;;6.50;99.90;;;;;;5251738;28;20201;-47
2022/04/25 01:11:58;;;;;;;20.60;11.97;;;6.50;99.90;;;;;;5251084;28;20831;-51
2022/04/25 01:14:29;;;;;;;21.33;13.10;;;6.50;99.90;;;;;;5249919;28;20461;-49
2022/04/25 01:17:00;;;;;;;17.83;12.00;;;6.40;99.90;;;;;;5267833;28;20538;-48
2022/04/25 01:19:31;;;;;;;28.93;12.03;;;6.50;99.90;;;;;;5250721;28;20677;-47
2022/04/25 01:22:10;;;;;;;24.43;12.87;;;6.40;99.90;;;;;;5242528;28;20573;-49
2022/04/25 01:27:30;;;;;;;25.20;13.73;;;6.40;99.90;;;;;;5264829;28;20445;-49
2022/04/25 01:30:01;;;;;;;18.87;13.10;;;6.40;99.90;;;;;;5251564;28;20473;-50
2022/04/25 01:32:31;;;;;;;25.70;13.17;;;6.30;99.90;;;;;;5265912;28;20178;-48
2022/04/25 01:35:02;;;;;;;22.53;14.50;;;6.40;99.90;;;;;;5244360;28;20435;-49
2022/04/25 01:37:33;;;;;;;25.40;13.10;;;6.30;99.90;;;;;;5249134;28;20199;-46
2022/04/25 01:40:04;;;;;;;23.20;13.33;;;6.30;99.90;;;;;;5247615;28;20671;-49
2022/04/25 01:42:35;;;;;;;18.00;13.30;;;6.30;99.90;;;;;;5256669;28;20224;-48
2022/04/25 01:45:06;;;;;;;17.40;12.50;;;6.30;99.90;;;;;;5265620;28;20897;-50
2022/04/25 01:47:37;;;;;;;24.30;13.27;;;6.30;99.90;;;;;;5267508;28;20245;-51
2022/04/25 01:50:08;;;;;;;22.77;13.63;;;6.30;99.90;;;;;;5240400;28;20470;-49
2022/04/25 01:52:38;;;;;;;27.87;13.90;;;6.30;99.90;;;;;;5228166;28;20191;-53
2022/04/25 01:55:09;;;;;;;17.83;12.67;;;6.20;99.90;;;;;;5243487;28;20519;-49
2022/04/25 01:57:40;;;;;;;32.30;14.67;;;6.20;99.90;;;;;;5239529;28;20185;-48
2022/04/25 02:00:10;;;;;;;25.10;14.00;;;6.20;99.90;;;;;;5241159;28;20207;-48
2022/04/25 02:02:41;;;;;;;21.33;13.10;;;6.20;99.90;;;;;;5262066;28;20315;-48
2022/04/25 02:05:12;;;;;;;30.00;13.70;;;6.20;99.90;;;;;;5259323;28;20184;-50
2022/04/25 02:07:42;;;;;;;21.73;14.53;;;6.10;99.90;;;;;;5255854;28;20229;-48
2022/04/25 02:10:13;;;;;;;24.67;13.97;;;6.10;99.90;;;;;;5254612;28;20297;-47
2022/04/25 02:12:44;;;;;;;21.97;14.90;;;6.10;99.90;;;;;;5255205;28;20273;-48
2022/04/25 02:15:15;;;;;;;18.60;12.77;;;6.10;99.90;;;;;;5259072;28;20247;-51
2022/04/25 02:17:45;;;;;;;21.83;13.03;;;6.10;99.90;;;;;;5242779;28;20537;-47
2022/04/25 02:20:16;;;;;;;20.70;12.50;;;6.00;99.90;;;;;;5259933;28;20206;-48
2022/04/25 02:22:47;;;;;;;22.40;13.73;;;6.00;99.90;;;;;;5245645;28;20223;-48
2022/04/25 02:25:19;;;;;;;23.50;13.90;;;6.00;99.90;;;;;;5262735;28;20688;-48
2022/04/25 02:27:50;;;;;;;24.03;14.70;;;6.00;99.90;;;;;;5242246;28;20439;-51
2022/04/25 02:30:20;;;;;;;25.80;13.63;;;6.00;99.90;;;;;;5239627;28;20463;-49
2022/04/25 02:32:51;;;;;;;25.50;14.40;;;6.00;99.90;;;;;;5245247;28;20178;-48
2022/04/25 02:35:21;;;;;;;28.67;15.93;;;6.00;99.90;;;;;;5258069;28;20188;-47
2022/04/25 02:37:52;;;;;;;22.43;13.70;;;5.90;99.90;;;;;;5241856;28;20258;-47
2022/04/25 02:40:22;;;;;;;28.33;15.50;;;5.90;99.90;;;;;;5240098;28;20202;-48
2022/04/25 02:42:53;;;;;;;25.00;14.70;;;5.90;99.90;;;;;;5257616;28;20211;-50
2022/04/25 02:45:23;;;;;;;24.00;14.87;;;5.90;99.90;;;;;;5238307;28;21857;-51
2022/04/25 02:47:54;;;;;;;35.63;17.00;;;5.80;99.90;;;;;;5250199;28;20172;-46
2022/04/25 02:50:25;;;;;;;26.57;16.17;;;5.90;99.90;;;;;;5262517;28;20655;-47
2022/04/25 02:52:55;;;;;;;28.67;16.03;;;5.80;99.90;;;;;;5262752;28;20871;-47
2022/04/25 02:55:26;;;;;;;24.80;14.70;;;5.70;99.90;;;;;;5261105;28;20170;-46
2022/04/25 02:57:56;;;;;;;29.93;16.53;;;5.80;99.90;;;;;;5247137;28;20854;-47
2022/04/25 03:00:27;;;;;;;24.20;16.23;;;5.70;99.90;;;;;;5262408;28;20672;-46
2022/04/25 03:02:57;;;;;;;30.93;15.17;;;5.70;99.90;;;;;;5248693;28;20193;-48
2022/04/25 03:05:28;;;;;;;30.30;15.87;;;5.70;99.90;;;;;;5249956;28;20303;-46
2022/04/25 03:07:58;;;;;;;30.23;16.13;;;5.70;99.90;;;;;;5249753;28;20166;-46
2022/04/25 03:10:29;;;;;;;24.50;14.67;;;5.60;99.90;;;;;;5236872;28;20667;-46
2022/04/25 03:13:00;;;;;;;25.33;15.13;;;5.60;99.90;;;;;;5254613;28;20182;-48
2022/04/25 03:15:30;;;;;;;23.67;15.40;;;5.60;99.90;;;;;;5251471;28;20188;-47
2022/04/25 03:18:01;;;;;;;22.47;15.60;;;5.60;99.90;;;;;;5244099;28;20450;-50
2022/04/25 03:20:32;;;;;;;26.57;15.27;;;5.60;99.90;;;;;;5260028;28;20206;-51
2022/04/25 03:23:05;;;;;;;26.90;16.03;;;5.60;99.90;;;;;;5240175;28;20199;-50
2022/04/25 03:25:37;;;;;;;26.13;15.60;;;5.50;99.90;;;;;;5256963;28;20190;-52
2022/04/25 03:28:07;;;;;;;31.93;15.90;;;5.60;99.90;;;;;;5244483;28;20417;-52
2022/04/25 03:30:38;;;;;;;25.20;14.40;;;5.50;99.90;;;;;;5262210;28;20547;-50
2022/04/25 03:33:13;;;;;;;25.77;15.80;;;5.60;99.90;;;;;;5267040;28;20253;-51
2022/04/25 03:35:46;;;;;;;30.77;16.03;;;5.60;99.90;;;;;;5246243;28;20447;-51
2022/04/25 03:38:18;;;;;;;24.17;14.90;;;5.60;99.90;;;;;;5262251;28;20445;-50
2022/04/25 03:40:48;;;;;;;35.60;17.03;;;5.60;99.90;;;;;;5243769;28;20839;-51
2022/04/25 03:43:19;;;;;;;31.27;15.83;;;5.60;99.90;;;;;;5225631;28;20477;-51
2022/04/25 03:45:49;;;;;;;25.00;15.20;;;5.60;99.90;;;;;;5242391;28;20172;-51
2022/04/25 03:48:20;;;;;;;31.10;15.40;;;5.60;99.90;;;;;;5261785;28;20181;-52
2022/04/25 03:50:51;;;;;;;22.90;13.63;;;5.60;99.90;;;;;;5261535;28;20314;-52
2022/04/25 03:53:21;;;;;;;22.33;13.97;;;5.70;99.90;;;;;;5244656;28;20181;-52
2022/04/25 03:58:41;;;;;;;23.70;14.33;;;5.80;99.90;;;;;;5259346;28;20289;-53
2022/04/25 04:01:11;;;;;;;22.63;13.63;;;5.80;99.90;;;;;;5254478;28;20427;-51
2022/04/25 04:03:42;;;;;;;19.97;14.60;;;5.80;99.90;;;;;;5241108;28;20202;-50
2022/04/25 04:06:13;;;;;;;25.60;15.40;;;5.80;99.90;;;;;;5245219;28;20249;-50
2022/04/25 04:08:44;;;;;;;25.40;14.77;;;5.80;99.90;;;;;;5264614;28;20209;-52
2022/04/25 04:11:15;;;;;;;28.17;15.07;;;5.80;99.90;;;;;;5242803;28;20439;-51
2022/04/25 04:13:47;;;;;;;28.33;14.77;;;5.90;99.90;;;;;;5257801;28;20199;-52
2022/04/25 04:16:18;;;;;;;22.63;13.73;;;5.90;99.90;;;;;;5252711;28;20173;-51
2022/04/25 04:18:48;;;;;;;21.93;14.30;;;6.00;99.90;;;;;;5259333;28;20994;-51
2022/04/25 04:21:21;;;;;;;22.67;13.17;;;5.90;99.90;;;;;;5244069;28;20180;-52
2022/04/25 04:23:51;;;;;;;22.80;13.40;;;6.00;99.90;;;;;;5246478;28;20203;-52
2022/04/25 04:26:21;;;;;;;31.47;14.90;;;5.90;99.90;;;;;;5243455;28;20450;-53
2022/04/25 04:28:53;;;;;;;28.90;15.37;;;5.90;99.90;;;;;;5246170;28;20215;-52
2022/04/25 04:31:24;;;;;;;25.50;15.43;;;6.00;99.90;;;;;;5258228;28;20203;-51
2022/04/25 04:33:54;;;;;;;21.13;13.83;;;6.00;99.90;;;;;;5260691;28;20531;-50
2022/04/25 04:36:26;;;;;;;30.83;15.23;;;6.00;99.90;;;;;;5255855;28;20183;-52
2022/04/25 04:38:56;;;;;;;20.07;13.73;;;6.10;99.90;;;;;;5237081;28;20342;-52
2022/04/25 04:41:27;;;;;;;26.83;13.97;;;6.00;99.90;;;;;;5241386;28;24675;-52
2022/04/25 04:43:58;;;;;;;23.30;14.33;;;6.00;99.90;;;;;;5263059;28;20211;-53
2022/04/25 04:46:28;;;;;;;25.73;13.70;;;6.10;99.90;;;;;;5259868;28;20541;-52
2022/04/25 04:48:59;;;;;;;28.17;14.77;;;6.00;99.90;;;;;;5247494;28;20211;-49
2022/04/25 04:51:29;;;;;;;19.00;14.20;;;6.10;99.90;;;;;;5242279;28;20263;-51
2022/04/25 04:54:00;;;;;;;22.50;13.67;;;6.00;99.90;;;;;;5259766;28;20187;-54
2022/04/25 04:56:31;;;;;;;24.40;14.90;;;6.10;99.90;;;;;;5255671;28;20183;-53
2022/04/25 04:59:02;;;;;;;25.43;14.00;;;6.10;99.90;;;;;;5232198;28;20210;-58
2022/04/25 05:01:33;;;;;;;25.97;13.50;;;6.20;99.90;;;;;;5253302;28;20757;-46
2022/04/25 05:04:04;;;;;;;25.60;14.30;;;6.20;99.90;;;;;;5236763;28;20463;-47
2022/04/25 05:06:35;;;;;;;21.03;14.30;;;6.20;99.90;;;;;;5245303;28;20535;-47
2022/04/25 05:09:05;;;;;;;22.13;13.23;;;6.20;99.90;;;;;;5252039;28;20302;-50
2022/04/25 05:11:36;;;;;;;20.83;12.57;;;6.20;99.90;;;;;;5242352;28;20185;-51
2022/04/25 05:14:09;;;;;;;20.90;12.30;;;6.30;99.90;;;;;;5236864;28;20183;-47
2022/04/25 05:16:40;;;;;;;20.30;12.33;;;6.30;99.90;;;;;;5244107;28;20180;-52
2022/04/25 05:19:10;;;;;;;21.30;14.27;;;6.40;99.90;;;;;;5260793;28;20878;-46
2022/04/25 05:21:41;;;;;;;17.37;11.70;;;6.40;99.90;;;;;;5262994;28;20438;-61
2022/04/25 05:24:11;;;;;;;20.47;11.63;;;6.40;99.90;;;;;;5243968;28;20749;-59
2022/04/25 05:26:42;;;;;;;22.37;11.67;;;6.50;99.90;;;;;;5258924;28;20332;-48
2022/04/25 05:29:14;;;;;;;19.70;12.13;;;6.40;99.90;;;;;;5237292;28;20201;-50
2022/04/25 05:31:44;;;;;;;21.97;11.10;;;6.40;99.90;;;;;;5255445;28;20175;-47
2022/04/25 05:34:15;;;;;;;14.17;10.17;;;6.50;99.90;;;;;;5262668;28;20435;-49
2022/04/25 05:36:46;;;;;;;21.63;11.90;;;6.50;99.90;;;;;;5244186;28;20192;-55
2022/04/25 05:39:16;;;;;;;26.83;11.70;;;6.50;99.90;;;;;;5260728;28;20461;-47
2022/04/25 05:41:47;;;;;;;18.07;10.07;;;6.60;99.90;;;;;;5258860;28;20288;-46
2022/04/25 05:44:17;;;;;;;14.50;10.60;;;6.70;99.90;;;;;;5266257;28;20279;-48
2022/04/25 05:46:48;;;;;;;20.63;10.20;;;6.80;99.90;;;;;;5251812;28;20184;-49
2022/04/25 05:52:08;;;;;;;13.80;9.37;;;6.90;99.90;;;;;;5259734;28;20775;-48
2022/04/25 05:54:39;;;;;;;18.33;9.33;;;7.00;99.90;;;;;;5259597;28;20569;-48
2022/04/25 05:57:09;;;;;;;13.80;9.80;;;7.00;99.90;;;;;;5266579;28;20453;-47
2022/04/25 05:59:40;;;;;;;10.33;7.33;;;7.00;99.90;;;;;;5260763;28;20200;-47
2022/04/25 06:02:10;;;;;;;12.17;8.70;;;7.10;99.90;;;;;;5230072;28;20461;-47
2022/04/25 06:04:41;;;;;;;16.07;8.87;;;7.30;99.90;;;;;;5253312;28;20173;-46
2022/04/25 06:07:11;;;;;;;10.43;7.47;;;7.40;99.90;;;;;;5265482;28;20181;-47
2022/04/25 06:09:42;;;;;;;12.47;8.60;;;7.60;99.90;;;;;;5266872;28;20197;-46
2022/04/25 06:12:12;;;;;;;12.73;7.87;;;7.60;99.90;;;;;;5249351;28;20176;-46
2022/04/25 06:14:44;;;;;;;15.50;7.50;;;7.60;99.90;;;;;;5243800;28;20215;-49
2022/04/25 06:17:15;;;;;;;8.93;7.20;;;7.70;99.90;;;;;;5240113;28;20182;-46
2022/04/25 06:19:46;;;;;;;14.53;7.20;;;7.60;99.90;;;;;;5244790;28;20463;-48
2022/04/25 06:22:20;;;;;;;20.77;8.57;;;7.40;99.90;;;;;;5255530;28;20220;-46
2022/04/25 06:24:50;;;;;;;10.00;7.47;;;7.50;99.90;;;;;;5249964;28;20574;-47
2022/04/25 06:27:21;;;;;;;10.43;8.07;;;7.50;99.90;;;;;;5250896;28;20443;-47
2022/04/25 06:29:52;;;;;;;9.90;6.70;;;7.50;99.90;;;;;;5269083;28;20225;-47
2022/04/25 06:32:24;;;;;;;8.07;6.77;;;7.60;99.90;;;;;;5265079;28;20173;-46
2022/04/25 06:34:54;;;;;;;17.73;7.40;;;7.80;99.90;;;;;;5249453;28;20661;-47
2022/04/25 06:37:25;;;;;;;10.87;6.13;;;7.90;99.90;;;;;;5250883;28;20450;-47
2022/04/25 06:39:55;;;;;;;10.87;7.10;;;8.00;99.90;;;;;;5247773;28;20628;-53
2022/04/25 06:42:26;;;;;;;9.40;7.10;;;8.00;99.90;;;;;;5262938;28;20205;-48
2022/04/25 06:44:57;;;;;;;11.87;6.67;;;8.00;99.90;;;;;;5259710;28;20256;-46
2022/04/25 06:47:27;;;;;;;10.13;6.20;;;8.10;99.90;;;;;;5264846;28;21000;-48
2022/04/25 06:49:58;;;;;;;14.20;6.93;;;8.10;99.90;;;;;;5241014;28;20212;-49
2022/04/25 06:52:29;;;;;;;12.20;6.60;;;8.10;99.90;;;;;;5245251;28;20575;-48
2022/04/25 06:54:59;;;;;;;8.37;6.53;;;8.00;99.90;;;;;;5250972;28;20185;-56
2022/04/25 06:57:32;;;;;;;13.87;7.27;;;8.00;99.90;;;;;;5249578;28;20181;-46
2022/04/25 07:00:08;;;;;;;9.60;5.60;;;8.00;99.90;;;;;;5239377;28;20198;-46
2022/04/25 07:02:39;;;;;;;10.30;6.67;;;8.00;99.90;;;;;;5258831;28;20592;-46
2022/04/25 07:05:09;;;;;;;7.70;6.00;;;8.00;99.90;;;;;;5265906;28;20542;-49
2022/04/25 07:07:40;;;;;;;7.47;6.60;;;8.00;99.90;;;;;;5263093;28;20600;-47
2022/04/25 07:10:10;;;;;;;8.63;6.60;;;8.10;99.90;;;;;;5264298;28;20202;-50
2022/04/25 07:12:42;;;;;;;14.90;7.13;;;8.20;99.90;;;;;;5262413;28;20181;-48
2022/04/25 07:15:12;;;;;;;9.67;6.50;;;8.20;99.90;;;;;;5244740;28;20181;-47
2022/04/25 07:17:43;;;;;;;13.20;7.23;;;8.00;99.90;;;;;;5244287;28;20961;-46
2022/04/25 07:20:13;;;;;;;14.97;5.90;;;8.00;99.90;;;;;;5263372;28;20209;-47
2022/04/25 07:31:13;;;;;;;12.20;7.07;;;8.10;99.90;;;;;;5265131;28;20463;-50
2022/04/25 07:33:45;;;;;;;9.20;6.50;;;8.10;99.90;;;;;;5268572;28;20431;-47
2022/04/25 07:36:17;;;;;;;6.23;4.90;;;8.20;99.90;;;;;;5268794;28;20427;-50
2022/04/25 07:38:48;;;;;;;7.47;5.07;;;8.20;99.90;;;;;;5257257;28;20445;-47
2022/04/25 07:41:19;;;;;;;11.33;6.10;;;8.30;99.90;;;;;;5257434;28;21265;-46
2022/04/25 07:43:49;;;;;;;17.90;6.53;;;8.50;99.90;;;;;;5250782;28;20216;-46
2022/04/25 07:46:23;;;;;;;17.13;6.83;;;8.40;99.90;;;;;;5269427;28;20545;-46
2022/04/25 07:48:53;;;;;;;11.07;5.73;;;8.20;99.90;;;;;;5266365;28;20210;-52
2022/04/25 07:51:24;;;;;;;13.80;6.70;;;8.30;99.90;;;;;;5261770;28;20910;-53
2022/04/25 07:53:54;;;;;;;6.53;5.80;;;8.10;99.90;;;;;;5238902;28;20186;-54
2022/04/25 07:56:26;;;;;;;17.73;4.90;;;8.10;99.90;;;;;;5261512;28;20239;-53
2022/04/25 07:58:57;;;;;;;8.50;5.20;;;8.30;99.90;;;;;;5264643;28;20228;-53
2022/04/25 08:01:29;;;;;;;6.80;6.17;;;8.40;99.90;;;;;;5259504;28;20442;-52
2022/04/25 08:04:01;;;;;;;6.80;5.33;;;8.60;99.90;;;;;;5240457;28;20468;-54
2022/04/25 08:06:32;;;;;;;11.33;6.13;;;8.70;99.90;;;;;;5259521;28;20436;-52
2022/04/25 08:09:03;;;;;;;7.30;4.53;;;8.70;99.90;;;;;;5250711;28;20470;-54
2022/04/25 08:11:34;;;;;;;7.80;6.10;;;8.80;99.90;;;;;;5245290;28;20448;-53
2022/04/25 08:19:42;;;;;;;8.80;5.50;;;9.20;99.90;;;;;;5262605;28;20459;-53
2022/04/25 08:22:14;;;;;;;6.57;4.90;;;9.30;99.90;;;;;;5261267;28;20443;-46
2022/04/25 08:24:44;;;;;;;10.50;6.00;;;9.20;99.90;;;;;;5263578;28;20261;-52
2022/04/25 08:27:15;;;;;;;7.90;5.10;;;9.20;99.90;;;;;;5246484;28;20523;-55
2022/04/25 08:29:48;;;;;;;6.73;4.90;;;9.30;99.90;;;;;;5263151;28;20205;-54
2022/04/25 08:32:19;;;;;;;11.03;5.70;;;9.20;99.90;;;;;;5261236;28;20213;-51
2022/04/25 08:34:50;;;;;;;6.57;4.27;;;9.40;99.90;;;;;;5262203;28;20493;-51
2022/04/25 08:37:21;;;;;;;8.40;5.00;;;9.70;99.90;;;;;;5248608;28;20182;-49
2022/04/25 08:39:51;;;;;;;7.77;4.87;;;9.80;99.90;;;;;;5268250;28;20229;-54
2022/04/25 08:42:22;;;;;;;9.37;5.70;;;10.00;99.90;;;;;;5265250;28;20532;-52
2022/04/25 08:44:53;;;;;;;10.23;4.87;;;10.10;99.90;;;;;;5248350;28;20177;-52
2022/04/25 08:47:29;;;;;;;9.57;4.80;;;10.40;99.90;;;;;;5247259;28;20181;-54
2022/04/25 08:50:00;;;;;;;12.30;5.47;;;10.40;99.90;;;;;;5245331;28;20467;-53
2022/04/25 08:52:31;;;;;;;10.33;5.23;;;10.60;99.90;;;;;;5259753;28;20815;-53
2022/04/25 08:55:03;;;;;;;9.10;4.37;;;10.90;99.90;;;;;;5249297;28;20188;-53
2022/04/25 08:57:35;;;;;;;7.03;4.37;;;10.90;99.90;;;;;;5251318;28;20428;-52
2022/04/25 09:00:07;;;;;;;10.40;4.73;;;11.00;99.90;;;;;;5246114;28;20452;-53
2022/04/25 09:02:41;;;;;;;7.07;5.20;;;11.00;99.90;;;;;;5248480;28;20894;-53
2022/04/25 09:05:12;;;;;;;11.03;4.70;;;10.80;99.90;;;;;;5239842;28;20615;-53
2022/04/25 09:07:44;;;;;;;7.50;4.87;;;10.80;99.90;;;;;;5264241;28;20432;-55
2022/04/25 09:10:16;;;;;;;7.20;4.17;;;10.70;99.90;;;;;;5268690;28;20449;-54
2022/04/25 09:12:47;;;;;;;12.27;4.47;;;10.60;99.90;;;;;;5267752;28;20930;-53
2022/04/25 09:15:21;;;;;;;16.80;6.10;;;10.60;99.90;;;;;;5251049;28;20523;-52
2022/04/25 09:17:55;;;;;;;7.80;3.80;;;10.90;99.90;;;;;;5263613;28;20435;-51
2022/04/25 09:20:26;;;;;;;5.10;3.50;;;11.20;99.90;;;;;;5231938;28;20458;-54
2022/04/25 09:22:58;;;;;;;4.20;3.53;;;11.40;99.90;;;;;;5247951;28;20455;-53
2022/04/25 09:25:28;;;;;;;6.40;3.83;;;11.70;99.90;;;;;;5264610;28;20497;-53
2022/04/25 09:28:12;;;;;;;6.53;3.80;;;12.00;99.90;;;;;;5253396;28;20464;-53
2022/04/25 09:30:56;;;;;;;3.57;3.27;;;11.90;99.90;;;;;;5229273;28;20684;-54
2022/04/25 09:33:28;;;;;;;12.00;4.40;;;12.00;99.90;;;;;;5267418;28;20435;-51
2022/04/25 09:35:58;;;;;;;4.03;3.37;;;12.20;99.90;;;;;;5264672;28;20438;-51
2022/04/25 09:38:33;;;;;;;7.77;3.97;;;12.50;99.90;;;;;;5247788;28;20431;-54
2022/04/25 09:41:07;;;;;;;6.50;4.10;;;12.60;99.90;;;;;;5249616;28;20161;-54
2022/04/25 09:43:41;;;;;;;5.10;4.17;;;12.70;99.90;;;;;;5240193;28;20483;-53
2022/04/25 09:46:16;;;;;;;16.87;5.87;;;13.00;99.60;;;;;;5245765;28;21016;-52
2022/04/25 09:49:03;;;;;;;11.83;4.87;;;13.20;97.70;;;;;;5249375;28;20541;-55
2022/04/25 09:51:34;;;;;;;10.43;3.90;;;13.40;96.50;;;;;;5257464;28;20439;-53
2022/04/25 09:54:05;;;;;;;8.83;3.47;;;13.50;94.50;;;;;;5259620;28;20439;-52
2022/04/25 09:56:35;;;;;;;4.03;3.83;;;13.40;94.30;;;;;;5238134;28;20548;-53
2022/04/25 09:59:08;;;;;;;6.90;3.90;;;13.30;94.20;;;;;;5231845;28;20298;-54
2022/04/25 10:01:40;;;;;;;25.70;8.60;;;13.50;93.70;;;;;;5254779;28;20524;-51
2022/04/25 10:04:36;;;;;;;9.57;4.97;;;13.60;92.50;;;;;;5260225;28;20467;-50
2022/04/25 10:07:07;;;;;;;9.60;3.50;;;13.90;90.70;;;;;;5260984;28;20435;-49
2022/04/25 10:09:40;;;;;;;3.80;2.80;;;14.10;85.40;;;;;;5259566;28;21323;-48
2022/04/25 10:12:11;;;;;;;13.43;3.60;;;13.80;86.20;;;;;;5253529;28;20518;-49
2022/04/25 10:14:42;;;;;;;4.73;3.30;;;13.60;88.00;;;;;;5261257;28;20431;-48
2022/04/25 10:17:15;;;;;;;3.77;3.30;;;13.40;89.80;;;;;;5239426;28;20451;-49
2022/04/25 10:19:45;;;;;;;4.63;3.37;;;13.30;90.00;;;;;;5239960;28;20217;-50
2022/04/25 10:22:18;;;;;;;6.20;3.80;;;13.10;90.60;;;;;;5240179;28;20915;-49
2022/04/25 10:24:48;;;;;;;3.80;3.10;;;12.90;91.60;;;;;;5240673;28;20186;-48
2022/04/25 10:27:27;;;;;;;3.70;3.10;;;12.90;93.00;;;;;;5243343;28;20436;-49
2022/04/25 10:30:12;;;;;;;8.77;3.30;;;13.10;92.40;;;;;;5256614;28;20330;-48
2022/04/25 10:32:42;;;;;;;4.63;3.13;;;13.50;91.80;;;;;;5262963;28;20471;-52
2022/04/25 10:35:32;;;;;;;5.73;3.57;;;13.60;89.20;;;;;;5234463;28;20441;-51
2022/04/25 10:38:49;;;;;;;3.60;3.13;;;13.30;89.80;;;;;;5257783;28;20193;-49
2022/04/25 10:44:20;;;;;;;3.73;3.00;;;13.20;90.00;;;;;;5254873;28;20462;-48
2022/04/25 10:47:03;;;;;;;5.60;3.67;;;13.20;90.20;;;;;;5241315;28;20435;-48
2022/04/25 10:49:55;;;;;;;4.77;3.80;;;13.40;90.40;;;;;;5268063;28;20658;-50
2022/04/25 10:52:33;;;;;;;4.50;3.17;;;13.60;88.30;;;;;;5229994;28;20444;-50
2022/04/25 10:55:34;;;;;;;8.30;3.43;;;13.60;88.50;;;;;;5260735;28;20530;-50
2022/04/25 10:58:07;;;;;;;4.87;3.50;;;13.70;86.10;;;;;;5267532;28;20430;-51
2022/04/25 11:00:38;;;;;;;4.63;3.70;;;13.80;84.60;;;;;;5265803;28;20978;-50
2022/04/25 11:03:18;;;;;;;3.90;3.03;;;13.90;83.80;;;;;;5256759;28;20519;-48
2022/04/25 11:05:51;;;;;;;3.10;2.90;;;13.70;86.20;;;;;;5258439;28;20427;-49
2022/04/25 11:08:24;;;;;;;7.53;3.13;;;13.70;85.50;;;;;;5261494;28;20507;-50
2022/04/25 11:10:57;;;;;;;13.73;3.17;;;13.70;85.10;;;;;;5245032;28;20436;-50
2022/04/25 11:13:35;;;;;;;4.37;3.17;;;13.70;85.10;;;;;;5263332;28;20450;-51
2022/04/25 11:16:16;;;;;;;6.33;3.10;;;13.60;83.80;;;;;;5257853;28;20773;-49
2022/04/25 11:19:09;;;;;;;6.80;2.47;;;13.60;84.40;;;;;;5263508;28;20465;-49
2022/04/25 11:21:46;;;;;;;3.83;3.00;;;13.70;83.70;;;;;;5248736;28;20470;-49
2022/04/25 11:24:30;;;;;;;3.53;2.90;;;13.50;83.00;;;;;;5259707;28;20498;-49
2022/04/25 11:27:05;;;;;;;2.70;2.60;;;13.60;83.20;;;;;;5242254;28;20426;-50
2022/04/25 11:29:43;;;;;;;4.10;3.03;;;13.80;82.10;;;;;;5260441;28;21027;-49
2022/04/25 11:32:35;;;;;;;2.70;2.60;;;14.00;81.30;;;;;;5265442;28;20438;-48
2022/04/25 11:35:07;;;;;;;6.60;3.57;;;14.20;79.60;;;;;;5239537;28;20605;-50
2022/04/25 11:37:37;;;;;;;5.90;2.97;;;14.20;77.70;;;;;;5262481;28;20441;-52
2022/04/25 11:40:09;;;;;;;3.53;2.57;;;13.80;79.40;;;;;;5241961;28;20447;-49
2022/04/25 11:42:40;;;;;;;2.60;2.50;;;13.40;82.40;;;;;;5242071;28;20566;-53
2022/04/25 11:45:10;;;;;;;5.07;3.13;;;13.40;84.80;;;;;;5256277;28;20437;-49
2022/04/25 11:47:41;;;;;;;3.13;3.03;;;13.30;86.00;;;;;;5246954;28;20193;-50
2022/04/25 11:50:12;;;;;;;5.87;3.70;;;13.50;85.30;;;;;;5262609;28;20970;-49
2022/04/25 11:52:47;;;;;;;6.03;3.47;;;13.80;84.00;;;;;;5235045;28;20229;-52
2022/04/25 11:55:31;;;;;;;2.70;2.50;;;14.10;81.70;;;;;;5246849;28;20923;-50
2022/04/25 11:58:02;;;;;;;3.60;3.30;;;14.10;79.20;;;;;;5258128;28;20468;-50
2022/04/25 12:00:34;;;;;;;5.40;3.40;;;14.10;78.90;;;;;;5241601;28;20458;-48
2022/04/25 12:03:04;;;;;;;4.20;2.73;;;14.00;79.40;;;;;;5241692;28;20468;-48
2022/04/25 12:05:35;;;;;;;3.10;2.90;;;14.00;80.10;;;;;;5265172;28;20473;-49
2022/04/25 12:16:37;;;;;;;4.13;3.30;;;14.00;77.60;;;;;;5241668;28;20467;-56
2022/04/25 12:19:08;;;;;;;4.43;3.40;;;13.80;78.00;;;;;;5262445;28;20879;-53
2022/04/25 12:21:44;;;;;;;4.40;3.20;;;13.80;78.90;;;;;;5258017;28;20264;-53
2022/04/25 12:24:17;;;;;;;3.50;3.20;;;13.80;79.00;;;;;;5263766;28;20209;-55
2022/04/25 12:26:48;;;;;;;3.47;3.27;;;13.90;80.30;;;;;;5240659;28;20435;-55
2022/04/25 12:29:19;;;;;;;3.90;3.60;;;14.20;79.40;;;;;;5239063;28;21157;-53
2022/04/25 12:31:50;;;;;;;6.43;4.40;;;14.30;76.90;;;;;;5255961;28;20630;-54
2022/04/25 12:34:22;;;;;;;5.80;3.90;;;14.20;76.90;;;;;;5241010;28;20584;-53
2022/04/25 12:36:57;;;;;;;3.97;3.57;;;14.30;77.50;;;;;;5226519;28;20978;-52
2022/04/25 12:39:28;;;;;;;4.53;3.93;;;14.40;76.40;;;;;;5245175;28;20464;-54
2022/04/25 12:41:59;;;;;;;4.50;3.40;;;14.40;75.00;;;;;;5239527;28;20432;-51
2022/04/25 12:44:30;;;;;;;5.33;3.47;;;14.40;73.40;;;;;;5258791;28;20220;-52
2022/04/25 12:47:05;;;;;;;4.57;4.17;;;14.30;73.90;;;;;;5245761;28;20432;-50
2022/04/25 12:49:38;;;;;;;3.77;3.47;;;14.30;75.20;;;;;;5247827;28;20607;-52
2022/04/25 12:52:13;;;;;;;9.43;3.60;;;14.40;74.90;;;;;;5264013;28;20487;-53
2022/04/25 12:54:43;;;;;;;4.70;4.30;;;14.60;74.60;;;;;;5259346;28;20431;-53
2022/04/25 12:57:20;;;;;;;4.13;3.73;;;14.80;72.50;;;;;;5239500;28;20436;-52
2022/04/25 12:59:54;;;;;;;7.27;5.83;;;15.10;70.40;;;;;;5243357;28;20186;-54
2022/04/25 13:02:32;;;;;;;16.23;6.90;;;15.20;67.40;;;;;;5257576;28;20448;-54
2022/04/25 13:05:05;;;;;;;5.60;3.27;;;15.00;66.70;;;;;;5255959;28;20439;-49
2022/04/25 13:07:41;;;;;;;4.27;3.87;;;14.90;66.10;;;;;;5260211;28;20490;-53
2022/04/25 13:10:15;;;;;;;6.73;3.63;;;14.70;67.90;;;;;;5242233;28;20479;-54
2022/04/25 13:12:46;;;;;;;4.10;3.80;;;14.70;66.60;;;;;;5256860;28;20427;-55
2022/04/25 13:15:19;;;;;;;3.70;3.20;;;14.80;67.00;;;;;;5244631;28;20564;-54
2022/04/25 13:17:51;;;;;;;3.50;3.27;;;15.00;66.50;;;;;;5231396;28;20531;-53
2022/04/25 13:20:25;;;;;;;13.83;4.20;;;15.20;64.80;;;;;;5246634;28;20471;-54
2022/04/25 13:22:56;;;;;;;5.33;3.10;;;15.50;64.60;;;;;;5228636;28;20601;-51
2022/04/25 13:25:27;;;;;;;3.57;3.27;;;15.70;63.00;;;;;;5265873;28;20492;-50
2022/04/25 13:27:57;;;;;;;4.87;3.63;;;15.50;60.60;;;;;;5261584;28;20429;-53
2022/04/25 13:30:28;;;;;;;8.73;4.20;;;15.30;62.20;;;;;;5242372;28;20780;-55
2022/04/25 13:32:59;;;;;;;3.40;3.10;;;15.40;62.30;;;;;;5248512;28;20265;-54
2022/04/25 13:35:29;;;;;;;8.90;4.07;;;15.40;62.20;;;;;;5253874;28;20190;-53
2022/04/25 13:38:00;;;;;;;4.57;4.17;;;15.30;61.90;;;;;;5249374;28;20186;-53
2022/04/25 13:40:30;;;;;;;4.30;4.00;;;15.20;62.70;;;;;;5266444;28;20295;-53
2022/04/25 13:43:02;;;;;;;4.63;3.70;;;15.00;62.90;;;;;;5265571;28;20224;-51